createdAt,value
2017-08-30T00:01:48.716Z,14.80
2017-08-30T00:04:16.432Z,13.17
2017-08-30T00:06:44.119Z,12.97
2017-08-30T00:09:11.821Z,13.40
2017-08-30T00:11:39.517Z,11.53
2017-08-30T00:14:07.175Z,12.50
2017-08-30T00:16:35.619Z,13.93
2017-08-30T00:19:03.253Z,14.33
2017-08-30T00:21:30.892Z,13.23
2017-08-30T00:23:58.604Z,11.50
2017-08-30T00:26:29.152Z,14.40
2017-08-30T00:28:56.783Z,16.50
2017-08-30T00:31:25.047Z,15.17
2017-08-30T00:33:52.710Z,15.20
2017-08-30T00:36:20.479Z,15.37
2017-08-30T00:38:49.779Z,14.50
2017-08-30T00:41:18.066Z,14.73
2017-08-30T00:43:47.378Z,14.00
2017-08-30T00:46:15.963Z,16.67
2017-08-30T00:48:44.362Z,15.43
2017-08-30T00:51:12.139Z,17.10
2017-08-30T00:53:39.844Z,14.87
2017-08-30T00:56:07.510Z,14.87
2017-08-30T00:58:35.179Z,15.50
2017-08-30T01:01:02.895Z,14.30
2017-08-30T01:03:30.576Z,15.83
2017-08-30T01:05:58.223Z,14.30
2017-08-30T01:08:25.937Z,15.20
2017-08-30T01:10:53.561Z,14.57
2017-08-30T01:13:21.192Z,17.20
2017-08-30T01:15:48.919Z,17.60
2017-08-30T01:18:16.584Z,23.30
2017-08-30T01:20:44.240Z,16.70
2017-08-30T01:23:12.019Z,17.47
2017-08-30T01:25:39.704Z,17.33
2017-08-30T01:28:07.328Z,15.90
2017-08-30T01:30:35.005Z,16.10
2017-08-30T01:33:02.656Z,14.23
2017-08-30T01:35:30.284Z,15.77
2017-08-30T01:37:58.058Z,15.37
2017-08-30T01:40:25.696Z,14.00
2017-08-30T01:42:53.346Z,14.17
2017-08-30T01:45:21.002Z,14.77
2017-08-30T01:47:48.664Z,16.63
2017-08-30T01:50:17.429Z,16.07
2017-08-30T01:52:46.587Z,14.60
2017-08-30T01:55:16.262Z,13.73
2017-08-30T01:57:44.623Z,15.53
2017-08-30T02:00:13.129Z,14.83
2017-08-30T02:02:41.193Z,14.53
2017-08-30T02:05:10.018Z,16.07
2017-08-30T02:07:38.565Z,15.27
2017-08-30T02:10:06.204Z,15.37
2017-08-30T02:12:33.839Z,16.30
2017-08-30T02:15:01.700Z,16.20
2017-08-30T02:17:29.341Z,15.60
2017-08-30T02:19:56.966Z,16.07
2017-08-30T02:22:24.684Z,15.57
2017-08-30T02:24:52.331Z,15.40
2017-08-30T02:27:19.974Z,16.77
2017-08-30T02:29:47.662Z,16.37
2017-08-30T02:32:15.292Z,13.93
2017-08-30T02:34:42.911Z,15.73
2017-08-30T02:37:10.645Z,14.67
2017-08-30T02:39:38.279Z,16.23
2017-08-30T02:42:05.912Z,15.87
2017-08-30T02:44:33.579Z,15.23
2017-08-30T02:47:01.236Z,15.33
2017-08-30T02:49:28.895Z,13.83
2017-08-30T02:51:56.596Z,15.37
2017-08-30T02:54:24.231Z,14.40
2017-08-30T02:56:51.871Z,13.90
2017-08-30T02:59:19.571Z,12.90
2017-08-30T03:01:47.212Z,16.60
2017-08-30T03:04:14.836Z,14.53
2017-08-30T03:06:42.975Z,15.13
2017-08-30T03:09:10.639Z,15.43
2017-08-30T03:11:38.278Z,13.90
2017-08-30T03:14:06.063Z,14.97
2017-08-30T03:16:33.704Z,15.60
2017-08-30T03:19:01.358Z,16.57
2017-08-30T03:21:29.075Z,16.07
2017-08-30T03:23:56.696Z,15.70
2017-08-30T03:26:24.387Z,15.90
2017-08-30T03:28:52.194Z,13.63
2017-08-30T03:31:19.843Z,14.43
2017-08-30T03:33:47.460Z,15.47
2017-08-30T03:36:15.178Z,15.17
2017-08-30T03:38:42.796Z,15.73
2017-08-30T03:41:10.513Z,16.50
2017-08-30T03:43:38.190Z,14.23
2017-08-30T03:46:05.874Z,13.60
2017-08-30T03:48:33.516Z,15.87
2017-08-30T03:51:01.280Z,16.00
2017-08-30T03:53:28.940Z,14.30
2017-08-30T03:55:56.677Z,15.40
2017-08-30T03:58:24.377Z,14.27
2017-08-30T04:00:52.007Z,14.87
2017-08-30T04:03:19.636Z,16.27
2017-08-30T04:05:47.335Z,14.57
2017-08-30T04:08:15.025Z,13.53
2017-08-30T04:10:42.659Z,14.30
2017-08-30T04:13:10.348Z,15.73
2017-08-30T04:15:38.011Z,16.03
2017-08-30T04:18:05.638Z,16.73
2017-08-30T04:20:33.411Z,14.93
2017-08-30T04:23:02.462Z,14.80
2017-08-30T04:25:30.972Z,17.37
2017-08-30T04:27:59.661Z,17.00
2017-08-30T04:30:28.342Z,16.43
2017-08-30T04:32:56.779Z,16.60
2017-08-30T04:35:25.428Z,16.80
2017-08-30T04:37:53.823Z,16.50
2017-08-30T04:40:21.459Z,14.73
2017-08-30T04:42:49.136Z,15.53
2017-08-30T04:45:16.869Z,17.67
2017-08-30T04:47:44.487Z,16.57
2017-08-30T04:50:12.274Z,16.10
2017-08-30T04:52:39.942Z,15.47
2017-08-30T04:55:07.556Z,15.20
2017-08-30T04:57:35.248Z,16.10
2017-08-30T05:00:02.895Z,17.33
2017-08-30T05:02:30.517Z,17.17
2017-08-30T05:04:58.199Z,17.43
2017-08-30T05:07:25.836Z,16.87
2017-08-30T05:09:53.447Z,18.30
2017-08-30T05:12:21.364Z,18.53
2017-08-30T05:14:49.120Z,19.10
2017-08-30T05:17:16.776Z,16.63
2017-08-30T05:19:44.717Z,17.50
2017-08-30T05:22:12.499Z,18.80
2017-08-30T05:24:40.390Z,17.20
2017-08-30T05:27:08.127Z,17.20
2017-08-30T05:29:35.779Z,17.27
2017-08-30T05:32:03.396Z,16.90
2017-08-30T05:34:31.596Z,17.53
2017-08-30T05:36:59.233Z,15.87
2017-08-30T05:39:26.879Z,15.33
2017-08-30T05:41:54.688Z,16.13
2017-08-30T05:44:22.360Z,17.10
2017-08-30T05:46:50.005Z,17.17
2017-08-30T05:49:18.592Z,18.20
2017-08-30T05:51:47.333Z,17.10
2017-08-30T05:54:16.331Z,14.93
2017-08-30T05:56:45.194Z,17.00
2017-08-30T05:59:14.108Z,18.10
2017-08-30T06:01:42.652Z,15.27
2017-08-30T06:04:11.245Z,15.60
2017-08-30T06:06:38.881Z,16.77
2017-08-30T06:09:06.568Z,17.10
2017-08-30T06:11:34.272Z,15.73
2017-08-30T06:14:01.940Z,15.10
2017-08-30T06:16:29.582Z,14.53
2017-08-30T06:18:57.352Z,14.00
2017-08-30T06:21:25.019Z,13.40
2017-08-30T06:23:52.649Z,12.67
2017-08-30T06:26:20.366Z,12.70
2017-08-30T06:28:47.998Z,13.33
2017-08-30T06:31:15.656Z,13.40
2017-08-30T06:33:43.359Z,13.80
2017-08-30T06:36:11.052Z,13.30
2017-08-30T06:38:38.742Z,13.60
2017-08-30T06:41:06.697Z,11.93
2017-08-30T06:43:34.328Z,12.27
2017-08-30T06:46:01.977Z,13.83
2017-08-30T06:48:29.795Z,13.23
2017-08-30T06:50:57.432Z,12.13
2017-08-30T06:53:25.136Z,12.03
2017-08-30T06:55:52.825Z,12.13
2017-08-30T06:58:20.511Z,12.43
2017-08-30T07:00:48.152Z,12.50
2017-08-30T07:03:15.905Z,10.80
2017-08-30T07:05:43.550Z,12.30
2017-08-30T07:08:11.270Z,11.97
2017-08-30T07:10:38.941Z,11.00
2017-08-30T07:13:06.641Z,11.20
2017-08-30T07:15:34.264Z,11.90
2017-08-30T07:18:01.943Z,10.93
2017-08-30T07:20:29.570Z,10.53
2017-08-30T07:22:57.288Z,11.77
2017-08-30T07:25:25.005Z,9.90
2017-08-30T07:27:52.658Z,11.23
2017-08-30T07:30:20.364Z,10.03
2017-08-30T07:32:48.121Z,10.73
2017-08-30T07:35:15.795Z,10.90
2017-08-30T07:37:43.446Z,9.43
2017-08-30T07:40:11.242Z,9.93
2017-08-30T07:42:38.883Z,10.80
2017-08-30T07:45:06.517Z,9.30
2017-08-30T07:47:34.255Z,9.33
2017-08-30T07:50:01.883Z,10.80
2017-08-30T07:52:29.528Z,10.10
2017-08-30T07:54:57.313Z,10.53
2017-08-30T07:57:24.972Z,10.80
2017-08-30T07:59:52.624Z,10.37
2017-08-30T08:02:20.315Z,9.73
2017-08-30T08:04:47.951Z,9.40
2017-08-30T08:07:15.580Z,10.40
2017-08-30T08:09:43.273Z,9.70
2017-08-30T08:12:10.916Z,8.77
2017-08-30T08:14:38.624Z,9.10
2017-08-30T08:17:06.523Z,9.93
2017-08-30T08:19:34.169Z,8.90
2017-08-30T08:22:01.769Z,9.30
2017-08-30T08:24:29.503Z,10.10
2017-08-30T08:26:57.157Z,9.10
2017-08-30T08:29:24.806Z,8.77
2017-08-30T08:31:52.479Z,8.73
2017-08-30T08:34:20.140Z,9.30
2017-08-30T08:36:47.816Z,9.10
2017-08-30T08:39:15.519Z,9.17
2017-08-30T08:41:43.135Z,8.53
2017-08-30T08:44:10.804Z,8.97
2017-08-30T08:46:38.569Z,8.93
2017-08-30T08:49:06.259Z,7.90
2017-08-30T08:51:34.037Z,8.77
2017-08-30T08:54:01.740Z,8.40
2017-08-30T08:56:29.419Z,8.73
2017-08-30T08:58:57.168Z,8.23
2017-08-30T09:01:24.909Z,8.70
2017-08-30T09:03:52.552Z,8.40
2017-08-30T09:06:20.188Z,8.20
2017-08-30T09:08:48.002Z,9.37
2017-08-30T09:11:15.628Z,8.97
2017-08-30T09:13:43.309Z,8.70
2017-08-30T09:16:11.004Z,8.83
2017-08-30T09:18:38.711Z,8.80
2017-08-30T09:21:06.340Z,8.10
2017-08-30T09:23:34.462Z,8.50
2017-08-30T09:26:02.128Z,8.30
2017-08-30T09:28:30.485Z,8.63
2017-08-30T09:30:58.283Z,8.47
2017-08-30T09:33:26.040Z,8.00
2017-08-30T09:35:53.679Z,7.70
2017-08-30T09:38:21.583Z,7.80
2017-08-30T09:40:49.241Z,8.20
2017-08-30T09:43:16.919Z,7.93
2017-08-30T09:45:44.711Z,8.70
2017-08-30T09:48:12.368Z,7.50
2017-08-30T09:50:40.112Z,8.50
2017-08-30T09:53:07.871Z,7.87
2017-08-30T09:55:35.592Z,9.10
2017-08-30T09:58:03.269Z,9.00
2017-08-30T10:00:31.093Z,8.47
2017-08-30T10:02:58.705Z,8.43
2017-08-30T10:05:27.104Z,7.30
2017-08-30T10:07:54.772Z,7.87
2017-08-30T10:10:22.485Z,7.37
2017-08-30T10:12:50.181Z,7.57
2017-08-30T10:15:18.028Z,8.70
2017-08-30T10:17:45.685Z,8.07
2017-08-30T10:20:13.361Z,8.13
2017-08-30T10:22:41.928Z,8.27
2017-08-30T10:25:10.181Z,7.80
2017-08-30T10:27:37.873Z,8.03
2017-08-30T10:30:05.735Z,6.73
2017-08-30T10:32:33.369Z,8.13
2017-08-30T10:35:01.020Z,7.03
2017-08-30T10:37:28.763Z,8.67
2017-08-30T10:39:56.461Z,7.93
2017-08-30T10:42:24.113Z,8.20
2017-08-30T10:44:51.927Z,8.13
2017-08-30T10:47:19.607Z,8.00
2017-08-30T10:49:47.342Z,8.07
2017-08-30T10:52:15.958Z,7.57
2017-08-30T10:54:43.620Z,8.40
2017-08-30T10:57:11.303Z,7.87
2017-08-30T10:59:39.011Z,8.30
2017-08-30T11:02:06.715Z,9.00
2017-08-30T11:04:34.371Z,8.10
2017-08-30T11:07:02.224Z,7.53
2017-08-30T11:09:29.854Z,7.67
2017-08-30T11:11:57.556Z,7.17
2017-08-30T11:14:25.245Z,8.20
2017-08-30T11:16:52.918Z,8.60
2017-08-30T11:19:20.584Z,7.20
2017-08-30T11:21:48.276Z,8.17
2017-08-30T11:24:15.924Z,8.07
2017-08-30T11:26:43.587Z,8.63
2017-08-30T11:29:11.396Z,7.80
2017-08-30T11:31:39.040Z,6.80
2017-08-30T11:34:06.759Z,7.50
2017-08-30T11:36:34.475Z,7.70
2017-08-30T11:39:02.137Z,7.50
2017-08-30T11:41:29.848Z,7.40
2017-08-30T11:43:57.548Z,7.90
2017-08-30T11:46:25.195Z,7.87
2017-08-30T11:48:52.854Z,7.70
2017-08-30T11:51:20.550Z,7.47
2017-08-30T11:53:48.212Z,8.60
2017-08-30T11:56:15.891Z,7.50
2017-08-30T11:58:43.784Z,8.70
2017-08-30T12:01:11.469Z,7.97
2017-08-30T12:03:39.104Z,7.97
2017-08-30T12:06:06.787Z,7.20
2017-08-30T12:08:34.481Z,8.53
2017-08-30T12:11:02.128Z,7.67
2017-08-30T12:13:29.856Z,8.10
2017-08-30T12:15:57.514Z,7.20
2017-08-30T12:18:25.268Z,7.60
2017-08-30T12:20:53.041Z,7.47
2017-08-30T12:23:20.723Z,7.60
2017-08-30T12:25:48.365Z,7.93
2017-08-30T12:28:16.068Z,8.10
2017-08-30T12:30:43.704Z,7.43
2017-08-30T12:33:11.388Z,8.20
2017-08-30T12:35:39.085Z,7.00
2017-08-30T12:41:05.556Z,7.77
2017-08-30T12:43:33.207Z,8.10
2017-08-30T12:46:00.827Z,8.30
2017-08-30T12:48:28.496Z,7.60
2017-08-30T12:50:56.153Z,7.57
2017-08-30T12:53:23.791Z,7.80
2017-08-30T12:55:51.545Z,7.33
2017-08-30T12:58:19.184Z,8.33
2017-08-30T13:00:46.881Z,7.60
2017-08-30T13:03:14.573Z,8.00
2017-08-30T13:05:42.195Z,7.77
2017-08-30T13:08:09.827Z,7.90
2017-08-30T13:10:37.482Z,7.50
2017-08-30T13:13:05.148Z,7.90
2017-08-30T13:15:32.783Z,7.40
2017-08-30T13:18:00.452Z,7.13
2017-08-30T13:20:28.080Z,7.70
2017-08-30T13:22:55.736Z,7.57
2017-08-30T13:25:23.551Z,7.47
2017-08-30T13:27:51.249Z,8.20
2017-08-30T13:30:18.931Z,7.70
2017-08-30T13:32:46.662Z,7.30
2017-08-30T13:35:14.296Z,7.37
2017-08-30T13:37:41.924Z,7.20
2017-08-30T13:40:09.636Z,7.40
2017-08-30T13:42:37.288Z,7.70
2017-08-30T13:45:04.944Z,8.00
2017-08-30T13:47:32.703Z,7.80
2017-08-30T13:50:00.411Z,7.77
2017-08-30T13:52:28.067Z,7.83
2017-08-30T13:54:55.821Z,8.47
2017-08-30T13:57:23.464Z,7.90
2017-08-30T13:59:51.191Z,7.33
2017-08-30T14:02:18.950Z,7.07
2017-08-30T14:04:46.631Z,7.73
2017-08-30T14:07:14.258Z,8.10
2017-08-30T14:09:41.967Z,7.90
2017-08-30T14:12:09.648Z,7.90
2017-08-30T14:14:37.301Z,7.40
2017-08-30T14:17:05.066Z,8.27
2017-08-30T14:19:32.700Z,8.00
2017-08-30T14:22:00.348Z,7.90
2017-08-30T14:24:28.040Z,8.10
2017-08-30T14:26:55.719Z,8.47
2017-08-30T14:29:23.384Z,8.43
2017-08-30T14:31:51.169Z,7.47
2017-08-30T14:34:18.835Z,8.27
2017-08-30T14:36:46.481Z,8.00
2017-08-30T14:39:15.300Z,6.97
2017-08-30T14:41:42.970Z,7.17
2017-08-30T14:44:10.639Z,8.13
2017-08-30T14:46:38.329Z,7.40
2017-08-30T14:49:05.988Z,7.87
2017-08-30T14:51:33.624Z,8.30
2017-08-30T14:54:01.443Z,8.17
2017-08-30T14:56:29.065Z,7.80
2017-08-30T14:58:56.803Z,8.70
2017-08-30T15:01:24.487Z,7.77
2017-08-30T15:03:52.161Z,7.73
2017-08-30T15:06:19.816Z,8.40
2017-08-30T15:08:47.519Z,9.00
2017-08-30T15:11:15.236Z,7.93
2017-08-30T15:13:42.880Z,8.27
2017-08-30T15:16:10.728Z,8.07
2017-08-30T15:18:38.374Z,8.10
2017-08-30T15:21:06.027Z,8.77
2017-08-30T15:23:33.754Z,8.27
2017-08-30T15:26:01.416Z,7.70
2017-08-30T15:28:29.044Z,8.43
2017-08-30T15:30:56.818Z,8.67
2017-08-30T15:33:24.488Z,8.13
2017-08-30T15:35:52.116Z,8.83
2017-08-30T15:38:19.825Z,8.33
2017-08-30T15:40:47.451Z,8.73
2017-08-30T15:43:15.092Z,7.27
2017-08-30T15:45:42.840Z,8.10
2017-08-30T15:48:10.525Z,7.30
2017-08-30T15:50:38.187Z,7.70
2017-08-30T15:53:05.939Z,8.50
2017-08-30T15:55:33.577Z,8.23
2017-08-30T15:58:01.207Z,7.10
2017-08-30T16:00:29.025Z,7.40
2017-08-30T16:02:56.711Z,6.87
2017-08-30T16:05:24.347Z,7.20
2017-08-30T16:07:52.016Z,7.07
2017-08-30T16:10:19.665Z,7.63
2017-08-30T16:12:47.289Z,7.00
2017-08-30T16:15:15.002Z,7.50
2017-08-30T16:17:42.656Z,7.87
2017-08-30T16:20:10.388Z,7.97
2017-08-30T16:22:38.068Z,7.87
2017-08-30T16:25:05.724Z,6.63
2017-08-30T16:27:33.342Z,6.80
2017-08-30T16:30:01.180Z,6.60
2017-08-30T16:32:28.834Z,6.67
2017-08-30T16:34:56.455Z,5.60
2017-08-30T16:37:24.295Z,8.47
2017-08-30T16:39:51.931Z,7.63
2017-08-30T16:42:19.564Z,7.33
2017-08-30T16:44:47.304Z,7.53
2017-08-30T16:47:15.012Z,7.33
2017-08-30T16:49:42.644Z,7.47
2017-08-30T16:52:10.319Z,7.40
2017-08-30T16:54:37.964Z,7.20
2017-08-30T16:57:05.595Z,6.93
2017-08-30T16:59:33.501Z,7.30
2017-08-30T17:02:01.164Z,6.67
2017-08-30T17:04:28.803Z,6.60
2017-08-30T17:06:56.491Z,6.80
2017-08-30T17:09:24.218Z,7.00
2017-08-30T17:11:51.992Z,8.17
2017-08-30T17:14:19.668Z,7.30
2017-08-30T17:16:47.279Z,7.30
2017-08-30T17:19:14.950Z,7.90
2017-08-30T17:21:42.614Z,8.67
2017-08-30T17:24:10.231Z,7.43
2017-08-30T17:26:37.927Z,6.50
2017-08-30T17:29:05.585Z,9.10
2017-08-30T17:31:33.233Z,9.30
2017-08-30T17:34:00.849Z,8.00
2017-08-30T17:36:28.524Z,8.20
2017-08-30T17:38:56.140Z,8.30
2017-08-30T17:41:24.189Z,7.03
2017-08-30T17:43:52.183Z,7.93
2017-08-30T17:46:20.075Z,9.00
2017-08-30T17:48:48.121Z,8.90
2017-08-30T17:51:16.237Z,8.90
2017-08-30T17:53:44.315Z,9.30
2017-08-30T17:56:12.395Z,9.33
2017-08-30T17:58:40.166Z,9.53
2017-08-30T18:01:07.864Z,9.33
2017-08-30T18:03:35.600Z,10.20
2017-08-30T18:06:03.491Z,8.57
2017-08-30T18:08:31.328Z,9.13
2017-08-30T18:10:59.181Z,9.80
2017-08-30T18:13:27.063Z,9.00
2017-08-30T18:15:54.754Z,10.87
2017-08-30T18:18:22.563Z,8.90
2017-08-30T18:20:50.419Z,10.77
2017-08-30T18:23:18.108Z,8.90
2017-08-30T18:25:45.892Z,10.00
2017-08-30T18:28:13.848Z,9.07
2017-08-30T18:30:41.726Z,9.00
2017-08-30T18:33:09.585Z,11.50
2017-08-30T18:35:37.658Z,10.03
2017-08-30T18:38:05.345Z,10.30
2017-08-30T18:40:33.238Z,10.07
2017-08-30T18:43:01.204Z,9.10
2017-08-30T18:45:29.118Z,9.23
2017-08-30T18:47:56.862Z,9.87
2017-08-30T18:50:24.778Z,10.50
2017-08-30T18:52:52.548Z,11.10
2017-08-30T18:55:20.259Z,10.80
2017-08-30T18:57:48.170Z,10.00
2017-08-30T19:00:15.853Z,8.90
2017-08-30T19:02:43.547Z,10.47
2017-08-30T19:05:11.215Z,17.33
2017-08-30T19:07:38.928Z,13.40
2017-08-30T19:10:06.638Z,14.30
2017-08-30T19:12:34.424Z,12.27
2017-08-30T19:15:02.832Z,10.23
2017-08-30T19:17:30.592Z,11.17
2017-08-30T19:19:58.454Z,11.10
2017-08-30T19:22:26.299Z,11.10
2017-08-30T19:24:54.156Z,10.93
2017-08-30T19:27:22.089Z,11.87
2017-08-30T19:29:49.794Z,10.87
2017-08-30T19:32:17.599Z,10.70
2017-08-30T19:34:45.335Z,10.77
2017-08-30T19:37:13.374Z,12.03
2017-08-30T19:39:41.026Z,10.50
2017-08-30T19:42:08.761Z,12.77
2017-08-30T19:44:36.403Z,12.20
2017-08-30T19:47:04.330Z,13.00
2017-08-30T19:49:32.113Z,11.47
2017-08-30T19:51:59.831Z,12.00
2017-08-30T19:54:27.631Z,11.40
2017-08-30T19:56:55.416Z,12.67
2017-08-30T19:59:23.206Z,12.97
2017-08-30T20:01:50.871Z,12.90
2017-08-30T20:04:18.751Z,12.83
2017-08-30T20:06:46.399Z,12.53
2017-08-30T20:09:15.401Z,12.63
2017-08-30T20:11:44.245Z,13.83
2017-08-30T20:14:12.769Z,12.87
2017-08-30T20:16:41.518Z,15.17
2017-08-30T20:19:10.044Z,13.00
2017-08-30T20:21:37.824Z,12.40
2017-08-30T20:24:05.985Z,12.60
2017-08-30T20:26:33.739Z,13.13
2017-08-30T20:29:01.344Z,13.10
2017-08-30T20:31:29.605Z,13.40
2017-08-30T20:33:57.299Z,13.73
2017-08-30T20:36:24.987Z,14.50
2017-08-30T20:38:53.403Z,14.17
2017-08-30T20:41:21.129Z,13.10
2017-08-30T20:43:48.852Z,13.67
2017-08-30T20:46:17.369Z,14.43
2017-08-30T20:48:45.184Z,12.27
2017-08-30T20:51:12.892Z,13.47
2017-08-30T20:53:40.858Z,13.77
2017-08-30T20:56:08.655Z,13.83
2017-08-30T20:58:36.400Z,13.93
2017-08-30T21:01:04.277Z,14.00
2017-08-30T21:03:32.303Z,13.43
2017-08-30T21:06:00.118Z,15.00
2017-08-30T21:08:27.935Z,13.80
2017-08-30T21:10:55.839Z,13.00
2017-08-30T21:13:23.699Z,12.93
2017-08-30T21:15:51.504Z,12.93
2017-08-30T21:18:19.440Z,13.53
2017-08-30T21:20:47.339Z,11.53
2017-08-30T21:23:15.266Z,14.33
2017-08-30T21:25:43.221Z,13.80
2017-08-30T21:28:11.088Z,12.23
2017-08-30T21:30:39.199Z,12.20
2017-08-30T21:33:07.169Z,11.80
2017-08-30T21:35:35.996Z,14.33
2017-08-30T21:38:05.727Z,16.37
2017-08-30T21:40:34.394Z,13.90
2017-08-30T21:43:03.087Z,14.17
2017-08-30T21:45:31.402Z,13.50
2017-08-30T21:48:00.196Z,13.20
2017-08-30T21:50:29.201Z,14.03
2017-08-30T21:52:57.209Z,12.60
2017-08-30T21:55:25.771Z,13.67
2017-08-30T21:57:54.611Z,12.60
2017-08-30T22:00:22.328Z,13.60
2017-08-30T22:02:50.012Z,13.90
2017-08-30T22:05:17.637Z,12.50
2017-08-30T22:07:45.281Z,14.90
2017-08-30T22:10:13.004Z,14.93
2017-08-30T22:12:40.635Z,15.60
2017-08-30T22:15:08.291Z,15.10
2017-08-30T22:17:36.030Z,14.37
2017-08-30T22:20:03.719Z,13.57
2017-08-30T22:22:31.361Z,15.17
2017-08-30T22:24:59.036Z,13.60
2017-08-30T22:27:26.709Z,13.27
2017-08-30T22:29:54.399Z,14.63
2017-08-30T22:32:22.064Z,15.33
2017-08-30T22:34:49.711Z,13.63
2017-08-30T22:37:17.360Z,14.37
2017-08-30T22:39:45.152Z,14.87
2017-08-30T22:42:12.790Z,13.73
2017-08-30T22:44:40.411Z,14.53
2017-08-30T22:47:08.210Z,15.10
2017-08-30T22:49:35.874Z,13.50
2017-08-30T22:52:03.549Z,12.10
2017-08-30T22:54:31.304Z,15.00
2017-08-30T22:56:58.943Z,15.70
2017-08-30T22:59:26.931Z,16.50
2017-08-30T23:01:55.302Z,15.73
2017-08-30T23:04:24.234Z,18.00
2017-08-30T23:06:52.761Z,15.40
2017-08-30T23:09:21.099Z,18.00
2017-08-30T23:11:50.024Z,16.27
2017-08-30T23:14:18.551Z,20.57
2017-08-30T23:16:46.221Z,18.97
2017-08-30T23:19:13.849Z,20.17
2017-08-30T23:21:41.536Z,22.33
2017-08-30T23:24:09.212Z,22.60
2017-08-30T23:26:36.844Z,23.93
2017-08-30T23:29:04.499Z,24.60
2017-08-30T23:31:32.175Z,21.73
2017-08-30T23:33:59.832Z,21.13
2017-08-30T23:36:27.468Z,19.70
2017-08-30T23:38:55.207Z,19.00
2017-08-30T23:41:22.838Z,17.60
2017-08-30T23:43:50.531Z,16.77
2017-08-30T23:46:18.220Z,16.23
2017-08-30T23:48:45.832Z,16.10
2017-08-30T23:51:13.483Z,15.57
2017-08-30T23:53:41.431Z,16.57
2017-08-30T23:56:09.082Z,14.73
2017-08-30T23:58:36.741Z,15.83
